aviador You're here:

KSMO Decoded Metar

SANTA MONICA in CA, USA
Report Time2018-07-20 08:51:00
UTC Time2018-07-20 09:01:27
Flight Rules vfr VFR
WindCalm
Visibility9999 m
Phenomena:N/A
Clouds:N/A
Expected CloudBase > 400 ft AGL from Temp-Dew spread
CeilingNone
Temp19°C (ISA +4)
Dew Point18°C (94% RH)
QNH1014 hPa
Density Alt938 ft
Elevation187 ft
Report Wrong Elevation
Raw Report
KSMO 200851Z AUTO 00000KT 10SM CLR 19/18 A2993 RMK AO2 SLP132
T01940178 57010=

Extra information for KSMO:More info

Metar Taf Metar & Taf Last 4 Metars F.Rules Stats Wind Profile Meteogram Temp Stats Airport Information Weather charts Add Link Nearby VenuesMetar ALERT Operation Metar Decoded Social comments

AIRNAV info for KSMO